Time;durP1;ratioP1;P1;durP2;ratioP2;P2;SDS_P1;SDS_P2;PMS_P1;PMS_P2;Temp;Humidity;BMP_temperature;BMP_pressure;BME280_temperature;BME280_humidity;BME280_pressure;Samples;Min_cycle;Max_cycle;Signal;HPM_P1;HPM_P2
2022/04/15 00:01:34;;;;;;;15.20;8.20;;;12.60;99.80;;;;;;4992561;28;20184;-67
2022/04/15 00:04:00;;;;;;;19.43;8.10;;;12.60;99.70;;;;;;4991539;28;20471;-63
2022/04/15 00:06:26;;;;;;;13.87;8.00;;;12.60;99.90;;;;;;5004828;28;20192;-63
2022/04/15 00:08:51;;;;;;;13.50;7.87;;;12.60;99.90;;;;;;5009772;28;20661;-63
2022/04/15 00:11:17;;;;;;;12.50;7.17;;;12.50;99.90;;;;;;5015111;28;20199;-62
2022/04/15 00:13:45;;;;;;;16.43;8.27;;;12.50;99.90;;;;;;5014777;28;20518;-63
2022/04/15 00:16:11;;;;;;;12.80;8.20;;;12.50;99.90;;;;;;5015332;28;20218;-62
2022/04/15 00:18:37;;;;;;;11.63;7.40;;;12.50;99.90;;;;;;5014681;28;21078;-64
2022/04/15 00:21:03;;;;;;;14.33;7.30;;;12.50;99.90;;;;;;4990209;28;20279;-63
2022/04/15 00:23:30;;;;;;;10.57;7.00;;;12.50;99.90;;;;;;4997981;28;20422;-64
2022/04/15 00:25:56;;;;;;;9.50;7.50;;;12.60;99.90;;;;;;4997253;28;20475;-63
2022/04/15 00:28:22;;;;;;;13.47;7.20;;;12.50;99.90;;;;;;5007162;28;20404;-63
2022/04/15 00:30:48;;;;;;;13.27;7.03;;;12.50;99.90;;;;;;5004068;28;20436;-63
2022/04/15 00:33:14;;;;;;;17.87;8.80;;;12.50;99.90;;;;;;4999071;28;20267;-63
2022/04/15 00:35:40;;;;;;;15.63;7.70;;;12.40;99.90;;;;;;4996881;28;20239;-65
2022/04/15 00:38:06;;;;;;;12.60;7.90;;;12.40;99.90;;;;;;4995784;28;20440;-66
2022/04/15 00:40:33;;;;;;;17.23;8.03;;;12.40;99.90;;;;;;4990794;28;20477;-64
2022/04/15 00:42:59;;;;;;;12.30;8.07;;;12.40;99.90;;;;;;4991943;28;20271;-63
2022/04/15 00:45:24;;;;;;;13.80;8.73;;;12.40;99.90;;;;;;5015105;28;20536;-64
2022/04/15 00:47:51;;;;;;;16.80;9.10;;;12.40;99.90;;;;;;4999460;28;20180;-64
2022/04/15 00:50:23;;;;;;;13.07;9.33;;;12.40;99.90;;;;;;5006333;28;20724;-63
2022/04/15 00:52:50;;;;;;;13.77;8.50;;;12.40;99.90;;;;;;5016282;28;20435;-64
2022/04/15 00:55:18;;;;;;;21.90;9.43;;;12.50;99.90;;;;;;4982081;28;20447;-65
2022/04/15 00:57:50;;;;;;;14.60;9.20;;;12.50;99.90;;;;;;4973134;28;20495;-63
2022/04/15 01:00:16;;;;;;;11.90;8.27;;;12.50;99.90;;;;;;5010782;28;20557;-63
2022/04/15 01:02:43;;;;;;;15.07;8.10;;;12.50;99.90;;;;;;5016874;28;20422;-63
2022/04/15 01:05:10;;;;;;;13.00;8.07;;;12.50;99.90;;;;;;4996434;28;20440;-63
2022/04/15 01:07:39;;;;;;;13.30;7.10;;;12.50;99.90;;;;;;4992261;28;20514;-64
2022/04/15 01:10:08;;;;;;;8.67;6.73;;;12.50;99.90;;;;;;5001838;28;20480;-63
2022/04/15 01:12:37;;;;;;;12.20;6.70;;;12.50;99.90;;;;;;5018228;28;20548;-63
2022/04/15 01:15:06;;;;;;;10.27;6.17;;;12.50;99.90;;;;;;5012493;28;20447;-63
2022/04/15 01:17:33;;;;;;;17.67;6.13;;;12.40;99.90;;;;;;5005921;28;21054;-63
2022/04/15 01:20:00;;;;;;;8.00;6.03;;;12.40;99.90;;;;;;5000195;28;20517;-64
2022/04/15 01:22:33;;;;;;;14.50;7.50;;;12.30;99.90;;;;;;5012937;28;20430;-63
2022/04/15 01:24:58;;;;;;;12.53;6.43;;;12.30;99.90;;;;;;5022316;28;20455;-63
2022/04/15 01:27:35;;;;;;;10.73;6.23;;;12.20;99.90;;;;;;5010968;28;20430;-63
2022/04/15 01:30:02;;;;;;;10.00;6.63;;;12.20;99.90;;;;;;4999628;28;20224;-62
2022/04/15 01:32:28;;;;;;;12.63;7.13;;;12.20;99.90;;;;;;4997846;28;20519;-63
2022/04/15 01:34:53;;;;;;;10.90;6.77;;;12.10;99.90;;;;;;5013812;28;20589;-64
2022/04/15 01:37:21;;;;;;;12.33;7.17;;;12.10;99.90;;;;;;4978151;28;20185;-63
2022/04/15 01:39:47;;;;;;;8.80;5.93;;;12.00;99.90;;;;;;5017605;28;20300;-63
2022/04/15 01:42:17;;;;;;;10.80;7.17;;;12.00;99.90;;;;;;5002447;28;20428;-63
2022/04/15 01:44:43;;;;;;;12.50;7.27;;;12.00;99.90;;;;;;5010905;28;20582;-62
2022/04/15 01:47:12;;;;;;;8.93;7.10;;;12.00;99.90;;;;;;4981974;28;20444;-64
2022/04/15 01:49:38;;;;;;;10.10;6.50;;;12.00;99.90;;;;;;4994660;28;20445;-62
2022/04/15 01:52:05;;;;;;;7.77;6.20;;;12.00;99.90;;;;;;4986152;28;20440;-64
2022/04/15 01:54:31;;;;;;;10.07;7.03;;;11.90;99.90;;;;;;4991771;28;20208;-63
2022/04/15 01:56:57;;;;;;;18.53;7.07;;;11.90;99.90;;;;;;5006342;28;20435;-64
2022/04/15 01:59:23;;;;;;;12.50;6.70;;;11.80;99.90;;;;;;5000783;28;20239;-63
2022/04/15 02:01:54;;;;;;;10.70;5.20;;;11.80;99.90;;;;;;4998335;28;21061;-62
2022/04/15 02:04:23;;;;;;;11.00;6.00;;;11.70;99.90;;;;;;5021624;28;20171;-63
2022/04/15 02:06:49;;;;;;;13.80;6.17;;;11.70;99.90;;;;;;5003772;28;20428;-64
2022/04/15 02:09:15;;;;;;;10.60;6.40;;;11.60;99.90;;;;;;5000165;28;20916;-63
2022/04/15 02:11:41;;;;;;;7.60;5.83;;;11.60;99.90;;;;;;5011151;28;20438;-63
2022/04/15 02:14:07;;;;;;;17.80;7.20;;;11.60;99.90;;;;;;5006939;28;20922;-65
2022/04/15 02:16:33;;;;;;;11.37;6.50;;;11.50;99.90;;;;;;4996447;28;20201;-62
2022/04/15 02:18:59;;;;;;;12.97;5.80;;;11.50;99.90;;;;;;5006569;28;20414;-63
2022/04/15 02:21:25;;;;;;;7.83;5.67;;;11.50;99.90;;;;;;4996982;28;21162;-62
2022/04/15 02:23:50;;;;;;;10.10;5.70;;;11.50;99.90;;;;;;5012824;28;20700;-63
2022/04/15 02:26:16;;;;;;;10.03;5.60;;;11.50;99.90;;;;;;5012847;28;20338;-63
2022/04/15 02:28:41;;;;;;;10.73;5.67;;;11.50;99.90;;;;;;4990158;28;20181;-63
2022/04/15 02:31:07;;;;;;;8.50;6.20;;;11.50;99.90;;;;;;5000887;28;20735;-63
2022/04/15 02:33:33;;;;;;;10.63;5.70;;;11.50;99.90;;;;;;5018676;28;20168;-63
2022/04/15 02:35:58;;;;;;;11.60;6.57;;;11.50;99.90;;;;;;5010238;28;20201;-63
2022/04/15 02:38:24;;;;;;;7.57;5.47;;;11.40;99.90;;;;;;4994753;28;20181;-64
2022/04/15 02:40:49;;;;;;;6.50;4.60;;;11.50;99.90;;;;;;4996767;28;20204;-64
2022/04/15 02:43:15;;;;;;;10.80;4.60;;;11.50;99.90;;;;;;5016007;28;20204;-62
2022/04/15 02:45:42;;;;;;;7.47;4.43;;;11.50;99.90;;;;;;4998259;28;20270;-63
2022/04/15 02:48:07;;;;;;;10.60;5.40;;;11.50;99.90;;;;;;5006750;28;20425;-63
2022/04/15 02:50:33;;;;;;;9.30;5.23;;;11.40;99.90;;;;;;4984993;28;20428;-64
2022/04/15 02:52:59;;;;;;;9.50;4.83;;;11.50;99.90;;;;;;5011959;28;20191;-63
2022/04/15 02:55:25;;;;;;;9.33;5.50;;;11.50;99.90;;;;;;4975560;28;20197;-64
2022/04/15 02:57:52;;;;;;;9.47;7.73;;;11.50;99.90;;;;;;5006511;28;20501;-63
2022/04/15 03:00:18;;;;;;;12.83;5.90;;;11.50;99.90;;;;;;4985878;28;20300;-63
2022/04/15 03:02:44;;;;;;;14.47;5.77;;;11.50;99.90;;;;;;5015332;28;20450;-63
2022/04/15 03:05:10;;;;;;;10.23;5.63;;;11.50;99.90;;;;;;5012353;28;20843;-62
2022/04/15 03:07:36;;;;;;;13.13;5.50;;;11.50;99.90;;;;;;4997670;28;20435;-64
2022/04/15 03:10:03;;;;;;;9.43;5.53;;;11.50;99.90;;;;;;4989894;28;20194;-64
2022/04/15 03:12:33;;;;;;;11.57;5.57;;;11.50;99.90;;;;;;4994414;28;20440;-63
2022/04/15 03:14:59;;;;;;;11.17;6.60;;;11.50;99.90;;;;;;4974417;28;20456;-64
2022/04/15 03:17:24;;;;;;;7.40;5.47;;;11.50;99.90;;;;;;4995808;28;20436;-63
2022/04/15 03:19:50;;;;;;;7.70;5.00;;;11.60;99.90;;;;;;5022242;28;20202;-63
2022/04/15 03:22:17;;;;;;;10.30;6.40;;;11.50;99.90;;;;;;5002642;28;20181;-64
2022/04/15 03:24:42;;;;;;;11.23;5.87;;;11.50;99.90;;;;;;4992485;28;20416;-63
2022/04/15 03:27:08;;;;;;;13.00;6.50;;;11.50;99.90;;;;;;5004175;28;20971;-64
2022/04/15 03:29:34;;;;;;;13.23;5.80;;;11.50;99.90;;;;;;5020983;28;20271;-64
2022/04/15 03:31:59;;;;;;;12.03;5.87;;;11.50;99.90;;;;;;4996673;28;20187;-63
2022/04/15 03:34:25;;;;;;;8.47;6.13;;;11.50;99.90;;;;;;5012800;28;20660;-64
2022/04/15 03:36:51;;;;;;;7.93;6.10;;;11.50;99.90;;;;;;4983706;28;20176;-63
2022/04/15 03:39:16;;;;;;;7.80;5.20;;;11.50;99.90;;;;;;5009709;28;20286;-64
2022/04/15 03:41:42;;;;;;;9.30;6.50;;;11.50;99.90;;;;;;4991781;28;20216;-63
2022/04/15 03:44:08;;;;;;;8.63;6.93;;;11.50;99.90;;;;;;4991327;28;20689;-64
2022/04/15 03:46:34;;;;;;;9.43;5.80;;;11.40;99.90;;;;;;4997262;28;20193;-64
2022/04/15 03:49:00;;;;;;;9.47;6.10;;;11.40;99.90;;;;;;5018620;28;20172;-63
2022/04/15 03:51:25;;;;;;;6.57;5.80;;;11.40;99.90;;;;;;5013518;28;22197;-63
2022/04/15 03:53:51;;;;;;;7.43;5.47;;;11.30;99.90;;;;;;4994850;28;20707;-64
2022/04/15 03:56:17;;;;;;;8.00;5.80;;;11.30;99.90;;;;;;4991854;28;20772;-62
2022/04/15 03:58:42;;;;;;;9.33;6.30;;;11.30;99.90;;;;;;5009044;28;20180;-63
2022/04/15 04:01:08;;;;;;;10.00;5.67;;;11.30;99.90;;;;;;4998317;28;20670;-63
2022/04/15 04:03:33;;;;;;;7.27;5.83;;;11.30;99.90;;;;;;4997169;28;20185;-63
2022/04/15 04:05:59;;;;;;;9.87;6.07;;;11.20;99.90;;;;;;5017506;28;20596;-62
2022/04/15 04:08:25;;;;;;;10.83;7.10;;;11.20;99.90;;;;;;5005478;28;20177;-63
2022/04/15 04:10:50;;;;;;;7.50;5.83;;;11.20;99.90;;;;;;4992729;28;20180;-63
2022/04/15 04:13:16;;;;;;;12.47;6.43;;;11.20;99.90;;;;;;5005463;28;20192;-63
2022/04/15 04:15:42;;;;;;;9.40;5.90;;;11.20;99.90;;;;;;5004882;28;20204;-62
2022/04/15 04:18:09;;;;;;;11.80;7.30;;;11.20;99.90;;;;;;5010108;28;20264;-63
2022/04/15 04:20:35;;;;;;;11.83;6.53;;;11.20;99.90;;;;;;4988501;28;20291;-62
2022/04/15 04:23:01;;;;;;;9.10;7.17;;;11.20;99.90;;;;;;4990355;28;20432;-63
2022/04/15 04:25:26;;;;;;;10.80;6.40;;;11.20;99.90;;;;;;4992281;28;20719;-63
2022/04/15 04:27:52;;;;;;;10.93;6.50;;;11.20;99.90;;;;;;4994292;28;20211;-63
2022/04/15 04:30:18;;;;;;;7.93;5.90;;;11.20;99.90;;;;;;5009169;28;20177;-64
2022/04/15 04:32:50;;;;;;;8.87;6.07;;;11.30;99.90;;;;;;5001960;28;20246;-62
2022/04/15 04:35:21;;;;;;;8.53;6.00;;;11.30;99.90;;;;;;5001322;28;20204;-63
2022/04/15 04:37:47;;;;;;;6.77;5.13;;;11.30;99.90;;;;;;4991264;28;20528;-63
2022/04/15 04:40:13;;;;;;;12.60;6.60;;;11.20;99.90;;;;;;4990687;28;20897;-63
2022/04/15 04:42:40;;;;;;;9.70;6.00;;;11.20;99.90;;;;;;5003781;28;20177;-64
2022/04/15 04:45:07;;;;;;;15.37;5.70;;;11.20;99.90;;;;;;4994696;28;20482;-64
2022/04/15 04:47:33;;;;;;;8.87;5.60;;;11.20;99.90;;;;;;5003458;28;20451;-63
2022/04/15 04:50:01;;;;;;;10.83;6.37;;;11.20;99.90;;;;;;5016174;28;20435;-63
2022/04/15 04:52:27;;;;;;;13.73;6.10;;;11.20;99.90;;;;;;5007951;28;20733;-63
2022/04/15 04:54:52;;;;;;;8.30;5.17;;;11.20;99.90;;;;;;5003904;28;20577;-63
2022/04/15 04:57:18;;;;;;;7.50;6.00;;;11.20;99.90;;;;;;5005034;28;20959;-64
2022/04/15 04:59:44;;;;;;;13.20;6.77;;;11.20;99.90;;;;;;5006300;28;20704;-64
2022/04/15 05:02:10;;;;;;;10.50;5.63;;;11.20;99.90;;;;;;5004005;28;20253;-62
2022/04/15 05:04:36;;;;;;;9.90;5.90;;;11.20;99.90;;;;;;5010384;28;20197;-63
2022/04/15 05:07:03;;;;;;;7.60;5.80;;;11.30;99.90;;;;;;5007085;28;20169;-64
2022/04/15 05:09:28;;;;;;;15.07;5.63;;;11.30;99.90;;;;;;4991561;28;20526;-63
2022/04/15 05:11:55;;;;;;;12.20;6.30;;;11.30;99.90;;;;;;5001631;28;20518;-63
2022/04/15 05:14:20;;;;;;;9.97;6.60;;;11.30;99.90;;;;;;5016321;28;20189;-63
2022/04/15 05:16:46;;;;;;;9.27;5.83;;;11.30;99.90;;;;;;5013274;28;20422;-63
2022/04/15 05:19:12;;;;;;;9.33;5.90;;;11.30;99.90;;;;;;5005707;28;20818;-63
2022/04/15 05:21:38;;;;;;;11.03;6.40;;;11.40;99.90;;;;;;5019805;28;20172;-63
2022/04/15 05:24:05;;;;;;;9.53;5.77;;;11.40;99.90;;;;;;5011821;28;20535;-62
2022/04/15 05:26:33;;;;;;;8.60;5.57;;;11.40;99.90;;;;;;5009332;28;20559;-64
2022/04/15 05:28:59;;;;;;;8.37;6.00;;;11.40;99.90;;;;;;5004442;28;20426;-63
2022/04/15 05:31:25;;;;;;;12.37;5.80;;;11.40;99.90;;;;;;5012270;28;20428;-63
2022/04/15 05:33:51;;;;;;;8.00;6.10;;;11.40;99.90;;;;;;5017143;28;20438;-64
2022/04/15 05:36:16;;;;;;;9.27;6.03;;;11.40;99.90;;;;;;5007542;28;20192;-64
2022/04/15 05:38:42;;;;;;;6.70;5.50;;;11.40;99.90;;;;;;4999203;28;20173;-63
2022/04/15 05:41:08;;;;;;;8.13;5.97;;;11.40;99.90;;;;;;4994117;28;20199;-63
2022/04/15 05:43:34;;;;;;;11.70;6.40;;;11.50;99.90;;;;;;5006684;28;20176;-63
2022/04/15 05:45:59;;;;;;;9.00;7.13;;;11.50;99.90;;;;;;4999085;28;20188;-62
2022/04/15 05:48:25;;;;;;;10.30;6.70;;;11.50;99.90;;;;;;5001646;28;20169;-63
2022/04/15 05:50:51;;;;;;;8.30;6.67;;;11.60;99.90;;;;;;5018679;28;20176;-63
2022/04/15 05:53:17;;;;;;;9.20;6.37;;;11.60;99.90;;;;;;5029268;28;20251;-63
2022/04/15 05:55:43;;;;;;;11.03;6.30;;;11.60;99.90;;;;;;4992987;28;21052;-62
2022/04/15 05:58:10;;;;;;;13.13;6.90;;;11.60;99.90;;;;;;4988768;28;20179;-63
2022/04/15 06:00:36;;;;;;;13.97;7.87;;;11.70;99.90;;;;;;5011953;28;20235;-62
2022/04/15 06:03:02;;;;;;;11.47;6.70;;;11.70;99.90;;;;;;5012148;28;20433;-63
2022/04/15 06:05:28;;;;;;;9.33;6.73;;;11.70;99.90;;;;;;5023307;28;20447;-62
2022/04/15 06:07:54;;;;;;;9.03;6.90;;;11.70;99.90;;;;;;5019767;28;20173;-63
2022/04/15 06:10:19;;;;;;;12.33;7.23;;;11.80;99.90;;;;;;4999845;28;20181;-62
2022/04/15 06:12:54;;;;;;;8.57;6.33;;;11.80;99.90;;;;;;4979494;28;20239;-63
2022/04/15 06:15:31;;;;;;;11.93;7.20;;;11.80;99.90;;;;;;4993024;28;20253;-63
2022/04/15 06:17:57;;;;;;;11.70;7.47;;;11.80;99.90;;;;;;5004936;28;20447;-63
2022/04/15 06:20:24;;;;;;;12.93;7.73;;;11.90;99.90;;;;;;5005670;28;21033;-63
2022/04/15 06:22:49;;;;;;;15.63;7.60;;;12.00;99.90;;;;;;5016153;28;20795;-62
2022/04/15 06:25:15;;;;;;;11.10;8.00;;;12.00;99.90;;;;;;5028298;28;20480;-63
2022/04/15 06:27:41;;;;;;;15.00;8.30;;;12.00;99.90;;;;;;5020857;28;20739;-61
2022/04/15 06:30:08;;;;;;;12.67;7.80;;;12.00;99.90;;;;;;4998111;28;20676;-63
2022/04/15 06:32:34;;;;;;;9.57;7.10;;;12.10;99.90;;;;;;5007188;28;20208;-63
2022/04/15 06:35:00;;;;;;;13.10;8.17;;;12.10;99.90;;;;;;4993356;28;20439;-63
2022/04/15 06:37:25;;;;;;;16.27;8.20;;;12.10;99.90;;;;;;4993353;28;20408;-63
2022/04/15 06:39:51;;;;;;;10.70;7.30;;;12.10;99.90;;;;;;4998797;28;20199;-64
2022/04/15 06:42:21;;;;;;;12.73;7.87;;;12.10;99.90;;;;;;4981180;28;20185;-63
2022/04/15 06:44:47;;;;;;;11.40;7.93;;;12.10;99.90;;;;;;5004126;28;20200;-64
2022/04/15 06:47:13;;;;;;;16.60;7.87;;;12.10;99.90;;;;;;5008678;28;20494;-63
2022/04/15 06:49:38;;;;;;;19.80;7.83;;;12.20;99.90;;;;;;4983965;28;20447;-63
2022/04/15 06:52:04;;;;;;;14.03;8.03;;;12.20;99.90;;;;;;4997775;28;20194;-64
2022/04/15 06:54:30;;;;;;;16.63;8.30;;;12.30;99.90;;;;;;4993047;28;20825;-63
2022/04/15 06:56:56;;;;;;;12.00;7.30;;;12.40;99.90;;;;;;5000329;28;20439;-64
2022/04/15 06:59:21;;;;;;;13.00;7.90;;;12.40;99.90;;;;;;5013065;28;20211;-64
2022/04/15 07:01:47;;;;;;;12.40;8.10;;;12.50;99.90;;;;;;5016572;28;20180;-64
2022/04/15 07:04:13;;;;;;;29.63;7.90;;;12.50;99.90;;;;;;5016043;28;20194;-64
2022/04/15 07:06:39;;;;;;;15.70;8.20;;;12.60;99.90;;;;;;5024784;28;20180;-63
2022/04/15 07:09:04;;;;;;;14.50;9.27;;;12.60;99.90;;;;;;5013606;28;20176;-62
2022/04/15 07:11:30;;;;;;;12.63;8.53;;;12.70;99.90;;;;;;5012865;28;20173;-64
2022/04/15 07:13:56;;;;;;;13.57;8.10;;;12.80;99.90;;;;;;5008568;28;20176;-64
2022/04/15 07:16:21;;;;;;;13.80;7.77;;;12.80;99.90;;;;;;5015543;28;20282;-63
2022/04/15 07:18:47;;;;;;;15.60;9.10;;;12.90;99.90;;;;;;5014870;28;20188;-63
2022/04/15 07:21:12;;;;;;;14.63;8.10;;;12.90;99.90;;;;;;4993690;28;20231;-64
2022/04/15 07:23:38;;;;;;;14.17;8.00;;;13.00;99.90;;;;;;5005404;28;20679;-64
2022/04/15 07:26:04;;;;;;;15.93;9.10;;;13.10;99.90;;;;;;4998188;28;20211;-65
2022/04/15 07:28:29;;;;;;;14.23;8.30;;;13.20;99.90;;;;;;5010245;28;20674;-64
2022/04/15 07:30:55;;;;;;;14.03;7.43;;;13.30;99.90;;;;;;5011109;28;20185;-64
2022/04/15 07:33:20;;;;;;;19.93;9.00;;;13.50;99.90;;;;;;4980735;28;20181;-64
2022/04/15 07:35:55;;;;;;;14.00;8.90;;;13.60;99.80;;;;;;5005896;28;20231;-63
2022/04/15 07:38:21;;;;;;;14.73;9.43;;;13.70;98.10;;;;;;5013214;28;20283;-64
2022/04/15 07:40:46;;;;;;;16.30;10.50;;;13.80;95.00;;;;;;4982097;28;21083;-64
2022/04/15 07:43:12;;;;;;;11.70;8.23;;;13.80;94.00;;;;;;5003361;28;20169;-64
2022/04/15 07:45:38;;;;;;;17.53;8.20;;;13.90;92.60;;;;;;4984317;28;20269;-64
2022/04/15 07:48:04;;;;;;;11.67;6.27;;;14.00;89.30;;;;;;4998396;28;20466;-64
2022/04/15 07:50:31;;;;;;;10.03;6.57;;;14.00;79.40;;;;;;5003085;28;20172;-64
2022/04/15 07:52:58;;;;;;;15.90;8.40;;;14.10;79.00;;;;;;4995783;28;20685;-64
2022/04/15 07:55:24;;;;;;;12.60;7.80;;;14.20;78.00;;;;;;4984871;28;20494;-63
2022/04/15 07:57:50;;;;;;;11.37;7.67;;;14.20;77.60;;;;;;4986651;28;20476;-61
2022/04/15 08:00:16;;;;;;;14.53;6.90;;;14.30;75.40;;;;;;4987841;28;20718;-61
2022/04/15 08:02:42;;;;;;;10.27;6.57;;;14.40;76.80;;;;;;4994133;28;20183;-63
2022/04/15 08:05:08;;;;;;;10.00;6.17;;;14.40;75.70;;;;;;4986908;28;20440;-62
2022/04/15 08:07:34;;;;;;;10.10;6.93;;;14.50;74.60;;;;;;4986779;28;20252;-63
2022/04/15 08:10:00;;;;;;;12.00;6.30;;;14.70;75.80;;;;;;4997979;28;20560;-64
2022/04/15 08:12:26;;;;;;;7.37;5.40;;;14.80;75.90;;;;;;4982629;28;22191;-64
2022/04/15 08:14:52;;;;;;;7.33;5.00;;;14.90;73.80;;;;;;4993623;28;20447;-65
2022/04/15 08:17:18;;;;;;;9.87;5.77;;;15.10;72.70;;;;;;4995291;28;20187;-63
2022/04/15 08:19:44;;;;;;;9.40;5.23;;;15.20;70.20;;;;;;4988663;28;20467;-63
2022/04/15 08:22:10;;;;;;;8.10;5.03;;;15.30;68.80;;;;;;4989267;28;20562;-63
2022/04/15 08:24:42;;;;;;;7.90;4.80;;;15.40;68.10;;;;;;4985616;28;20236;-63
2022/04/15 08:27:12;;;;;;;5.30;4.50;;;15.50;67.10;;;;;;4985551;28;20184;-63
2022/04/15 08:29:39;;;;;;;5.40;4.70;;;15.60;65.90;;;;;;4988017;28;20435;-62
2022/04/15 08:32:08;;;;;;;14.60;4.20;;;15.70;64.20;;;;;;4986824;28;20443;-62
2022/04/15 08:34:37;;;;;;;5.10;4.00;;;15.70;62.80;;;;;;4992455;28;20575;-62
2022/04/15 08:37:04;;;;;;;4.50;3.97;;;15.70;62.00;;;;;;4998903;28;20415;-64
2022/04/15 08:39:30;;;;;;;6.30;4.20;;;15.70;59.70;;;;;;5001588;28;20546;-62
2022/04/15 08:41:58;;;;;;;4.33;3.93;;;15.70;59.10;;;;;;4998847;28;21060;-63
2022/04/15 08:44:25;;;;;;;6.53;4.10;;;15.70;59.40;;;;;;4989299;28;20268;-63
2022/04/15 08:46:51;;;;;;;5.30;3.37;;;15.80;59.30;;;;;;4977523;28;21556;-63
2022/04/15 08:49:19;;;;;;;6.20;4.40;;;15.80;59.30;;;;;;4989809;28;20511;-64
2022/04/15 08:51:48;;;;;;;7.03;5.03;;;15.90;59.40;;;;;;4969739;28;20493;-64
2022/04/15 08:54:14;;;;;;;5.23;3.60;;;15.90;59.00;;;;;;4975900;28;20427;-66
2022/04/15 08:56:39;;;;;;;9.90;3.53;;;16.00;58.80;;;;;;4990728;28;20431;-64
2022/04/15 08:59:05;;;;;;;11.30;4.10;;;16.00;58.70;;;;;;4991987;28;20188;-63
2022/04/15 09:01:32;;;;;;;5.07;3.10;;;16.10;58.20;;;;;;4992043;28;20169;-63
2022/04/15 09:03:58;;;;;;;5.30;4.03;;;16.10;57.60;;;;;;4988243;28;20182;-62
2022/04/15 09:06:29;;;;;;;5.30;3.63;;;16.20;57.70;;;;;;4974199;28;20444;-64
2022/04/15 09:09:02;;;;;;;6.30;4.00;;;16.30;57.50;;;;;;4989262;28;20427;-62
2022/04/15 09:11:32;;;;;;;6.07;3.93;;;16.30;57.20;;;;;;4992208;28;20416;-63
2022/04/15 09:14:02;;;;;;;8.00;4.20;;;16.40;55.80;;;;;;4989972;28;20428;-63
2022/04/15 09:16:29;;;;;;;6.10;3.27;;;16.50;55.80;;;;;;4975905;28;20455;-66
2022/04/15 09:18:56;;;;;;;4.17;3.40;;;16.60;56.00;;;;;;4992743;28;20431;-63
2022/04/15 09:21:28;;;;;;;4.30;3.40;;;16.70;55.70;;;;;;4989191;28;20451;-62
2022/04/15 09:23:55;;;;;;;4.30;3.50;;;16.80;55.50;;;;;;4990205;28;20429;-67
2022/04/15 09:26:22;;;;;;;4.57;3.60;;;16.90;56.10;;;;;;4974933;28;20451;-63
2022/04/15 09:28:49;;;;;;;5.37;3.63;;;17.00;55.60;;;;;;4990721;28;20444;-61
2022/04/15 09:31:17;;;;;;;5.70;3.53;;;17.10;55.60;;;;;;4985342;28;20957;-61
2022/04/15 09:33:57;;;;;;;5.10;3.57;;;17.20;55.00;;;;;;4994071;28;20837;-63
2022/04/15 09:36:34;;;;;;;4.23;3.07;;;17.20;54.30;;;;;;4989883;28;20463;-63
2022/04/15 09:39:02;;;;;;;4.03;3.20;;;17.20;54.40;;;;;;4988909;28;20427;-60
2022/04/15 09:41:29;;;;;;;5.10;3.40;;;17.30;54.60;;;;;;4985621;28;20436;-62
2022/04/15 09:43:56;;;;;;;3.83;3.40;;;17.20;54.40;;;;;;4993123;28;20436;-62
2022/04/15 09:46:22;;;;;;;5.00;3.80;;;17.20;54.40;;;;;;4992000;28;20455;-61
2022/04/15 09:49:07;;;;;;;6.77;3.63;;;17.10;54.70;;;;;;4991466;28;20908;-62
2022/04/15 09:51:47;;;;;;;4.57;3.97;;;17.00;54.10;;;;;;4990895;28;20177;-63
2022/04/15 09:54:24;;;;;;;5.90;4.60;;;16.90;54.10;;;;;;4988695;28;21066;-63
2022/04/15 09:56:51;;;;;;;7.93;5.33;;;16.80;54.10;;;;;;4987356;28;20439;-64
2022/04/15 09:59:23;;;;;;;12.03;6.60;;;16.70;54.90;;;;;;4999966;28;20467;-62
2022/04/15 10:01:57;;;;;;;7.93;4.30;;;16.60;55.40;;;;;;4992282;28;20478;-63
2022/04/15 10:04:27;;;;;;;9.70;4.87;;;16.50;55.20;;;;;;4994185;28;20945;-61
2022/04/15 10:06:54;;;;;;;6.60;4.47;;;16.40;55.00;;;;;;4989547;28;20475;-62
2022/04/15 10:09:20;;;;;;;5.90;4.00;;;16.40;55.50;;;;;;4983169;28;20438;-62
2022/04/15 10:11:48;;;;;;;5.77;4.33;;;16.40;55.70;;;;;;4988822;28;20543;-63
2022/04/15 10:14:16;;;;;;;9.53;4.27;;;16.40;55.70;;;;;;4990965;28;20847;-59
2022/04/15 10:16:42;;;;;;;10.40;4.97;;;16.40;55.60;;;;;;4976518;28;20862;-62
2022/04/15 10:19:10;;;;;;;4.80;4.20;;;16.40;55.80;;;;;;4991842;28;20435;-60
2022/04/15 10:21:44;;;;;;;4.30;3.83;;;16.40;55.60;;;;;;4991448;28;20436;-61
2022/04/15 10:24:10;;;;;;;4.00;3.60;;;16.40;55.50;;;;;;4974889;28;20525;-58
2022/04/15 10:26:44;;;;;;;7.33;3.90;;;16.50;54.70;;;;;;4987979;28;20456;-57
2022/04/15 10:29:11;;;;;;;4.20;3.80;;;16.50;55.20;;;;;;4982537;28;20506;-60
2022/04/15 10:31:48;;;;;;;4.37;3.40;;;16.60;54.50;;;;;;4984608;28;20444;-61
2022/04/15 10:34:13;;;;;;;7.60;3.43;;;16.60;52.90;;;;;;4994339;28;20435;-63
2022/04/15 10:36:44;;;;;;;5.20;3.40;;;16.70;52.70;;;;;;4985808;28;20435;-58
2022/04/15 10:39:11;;;;;;;7.50;3.60;;;16.70;52.00;;;;;;4986915;28;20192;-64
2022/04/15 10:41:42;;;;;;;3.40;3.10;;;16.80;51.30;;;;;;4991228;28;20481;-60
2022/04/15 10:44:39;;;;;;;4.73;3.00;;;16.80;51.10;;;;;;5016940;28;20609;-61
2022/04/15 10:47:16;;;;;;;4.37;3.60;;;16.90;50.80;;;;;;5000853;28;20426;-60
2022/04/15 10:49:55;;;;;;;3.93;3.20;;;17.00;51.00;;;;;;5007838;28;20431;-59
2022/04/15 10:52:25;;;;;;;3.83;3.07;;;17.20;50.50;;;;;;4998574;28;20463;-60
2022/04/15 10:54:54;;;;;;;3.30;3.00;;;17.30;50.30;;;;;;4990947;28;20476;-60
2022/04/15 10:57:21;;;;;;;12.67;3.43;;;17.40;50.40;;;;;;4991467;28;20817;-61
2022/04/15 11:02:40;;;;;;;6.53;3.13;;;17.60;49.30;;;;;;5015858;28;20409;-60
2022/04/15 11:05:06;;;;;;;4.10;2.80;;;17.70;49.30;;;;;;5011462;28;20457;-61
2022/04/15 11:07:49;;;;;;;10.23;3.37;;;17.80;49.70;;;;;;5006488;28;20436;-60
2022/04/15 11:10:17;;;;;;;4.00;3.37;;;17.90;48.80;;;;;;5003369;28;20450;-61
2022/04/15 11:12:44;;;;;;;3.37;3.03;;;17.90;47.30;;;;;;4992779;28;20424;-62
2022/04/15 11:15:11;;;;;;;5.03;2.90;;;17.90;46.50;;;;;;5008802;28;20506;-60
2022/04/15 11:17:38;;;;;;;4.53;3.33;;;17.90;47.00;;;;;;5016098;28;20997;-62
2022/04/15 11:20:07;;;;;;;3.57;3.07;;;18.00;47.70;;;;;;4991811;28;20463;-61
2022/04/15 11:22:37;;;;;;;4.20;2.93;;;18.10;48.40;;;;;;4992605;28;20436;-61
2022/04/15 11:25:02;;;;;;;4.80;3.40;;;18.20;48.80;;;;;;4993452;28;20467;-61
2022/04/15 11:27:29;;;;;;;4.90;3.40;;;18.30;48.70;;;;;;4997018;28;20429;-61
2022/04/15 11:29:56;;;;;;;4.63;3.00;;;18.30;48.00;;;;;;4997600;28;20433;-61
2022/04/15 11:32:22;;;;;;;5.90;3.23;;;18.30;48.10;;;;;;5015704;28;20431;-61
2022/04/15 11:34:54;;;;;;;7.70;3.47;;;18.30;48.50;;;;;;5016587;28;20500;-61
2022/04/15 11:37:20;;;;;;;6.00;3.60;;;18.30;48.90;;;;;;5018973;28;20540;-64
2022/04/15 11:39:47;;;;;;;4.30;3.47;;;18.30;48.80;;;;;;5005075;28;20460;-60
2022/04/15 11:42:16;;;;;;;6.60;3.17;;;18.30;48.60;;;;;;4996499;28;20204;-62
2022/04/15 11:44:45;;;;;;;7.10;4.00;;;18.40;48.70;;;;;;4990729;28;20444;-62
2022/04/15 11:47:18;;;;;;;4.77;3.50;;;18.40;48.40;;;;;;4999046;28;20431;-63
2022/04/15 11:49:45;;;;;;;5.67;3.63;;;18.50;48.10;;;;;;5002975;28;20443;-59
2022/04/15 11:52:23;;;;;;;7.70;3.70;;;18.50;47.90;;;;;;4991696;28;20415;-60
2022/04/15 11:54:49;;;;;;;7.77;4.00;;;18.60;48.40;;;;;;4993715;28;20609;-61
2022/04/15 11:57:15;;;;;;;4.60;4.00;;;18.70;48.40;;;;;;5005794;28;20427;-61
2022/04/15 11:59:43;;;;;;;6.67;4.03;;;18.80;48.20;;;;;;4993792;28;20193;-64
2022/04/15 12:02:11;;;;;;;5.50;4.07;;;18.80;48.00;;;;;;5013725;28;20215;-63
2022/04/15 12:04:47;;;;;;;4.10;3.70;;;18.80;47.90;;;;;;5013468;28;20809;-61
2022/04/15 12:07:15;;;;;;;6.60;4.23;;;18.90;46.90;;;;;;5018850;28;20432;-61
2022/04/15 12:09:43;;;;;;;3.90;3.30;;;19.30;46.90;;;;;;5007394;28;20510;-61
2022/04/15 12:12:09;;;;;;;5.87;3.30;;;19.70;47.50;;;;;;5012837;28;20796;-62
2022/04/15 12:14:40;;;;;;;9.67;3.50;;;19.90;46.70;;;;;;5012266;28;20455;-61
2022/04/15 12:17:11;;;;;;;5.60;3.10;;;19.80;46.50;;;;;;5015714;28;20183;-61
2022/04/15 12:19:37;;;;;;;4.10;3.30;;;19.70;46.20;;;;;;5005759;28;20522;-61
2022/04/15 12:22:03;;;;;;;7.40;3.43;;;19.60;46.50;;;;;;5004692;28;20956;-61
2022/04/15 12:24:32;;;;;;;3.97;3.57;;;19.60;46.50;;;;;;5010653;28;20473;-61
2022/04/15 12:27:00;;;;;;;6.53;3.23;;;19.50;46.60;;;;;;4997991;28;20435;-60
2022/04/15 12:32:17;;;;;;;5.70;3.73;;;19.30;46.40;;;;;;5007802;28;20437;-61
2022/04/15 12:35:05;;;;;;;6.40;3.20;;;19.10;46.20;;;;;;4991614;28;20456;-62
2022/04/15 12:37:36;;;;;;;5.50;3.47;;;19.00;46.30;;;;;;4983734;28;20479;-62
2022/04/15 12:40:08;;;;;;;4.20;3.07;;;19.00;46.60;;;;;;4999409;28;20462;-61
2022/04/15 12:42:36;;;;;;;4.70;3.13;;;19.00;46.90;;;;;;4993708;28;20801;-61
2022/04/15 12:45:09;;;;;;;3.93;3.40;;;19.00;47.10;;;;;;4989412;28;20456;-61
2022/04/15 12:47:37;;;;;;;5.90;2.80;;;19.00;46.10;;;;;;5017794;28;20505;-61
2022/04/15 12:50:35;;;;;;;5.13;2.63;;;19.30;45.60;;;;;;4997850;28;20527;-62